Time;durP1;ratioP1;P1;durP2;ratioP2;P2;SDS_P1;SDS_P2;PMS_P1;PMS_P2;Temp;Humidity;BMP_temperature;BMP_pressure;BME280_temperature;BME280_humidity;BME280_pressure;Samples;Min_cycle;Max_cycle;Signal;HPM_P1;HPM_P2
2024/01/16 00:00:34;;;;;;;1.55;1.55;;;;;;;2.20;82.26;99744.44;5069295;28;20032;-76
2024/01/16 00:02:59;;;;;;;1.50;1.50;;;;;;;2.15;81.26;99746.22;5052469;28;20037;-74
2024/01/16 00:05:25;;;;;;;1.60;1.60;;;;;;;2.16;81.60;99744.44;5066668;28;20372;-76
2024/01/16 00:07:50;;;;;;;1.50;1.50;;;;;;;2.05;81.49;99720.00;5070253;28;20430;-75
2024/01/16 00:10:15;;;;;;;1.50;1.50;;;;;;;2.13;82.46;99732.22;5052091;28;20028;-77
2024/01/16 00:12:41;;;;;;;1.50;1.50;;;;;;;1.84;82.44;99692.13;5070619;28;20058;-75
2024/01/16 00:15:07;;;;;;;1.60;1.60;;;;;;;1.88;82.32;99687.72;5059090;28;20661;-74
2024/01/16 00:17:33;;;;;;;1.60;1.60;;;;;;;2.13;82.37;99731.34;5054040;28;20033;-77
2024/01/16 00:20:01;;;;;;;1.40;1.40;;;;;;;2.12;82.70;99730.47;5050538;28;20029;-77
2024/01/16 00:22:27;;;;;;;1.60;1.60;;;;;;;2.11;82.04;99733.97;5052050;28;20021;-74
2024/01/16 00:24:53;;;;;;;1.60;1.60;;;;;;;2.13;81.73;99732.22;5056535;28;20025;-68
2024/01/16 00:27:18;;;;;;;1.50;1.50;;;;;;;1.86;81.41;99676.38;5062221;28;20035;-78
2024/01/16 00:29:44;;;;;;;1.48;1.48;;;;;;;2.08;81.88;99723.50;5048377;28;20037;-76
2024/01/16 00:32:09;;;;;;;1.40;1.40;;;;;;;2.14;82.22;99728.69;5030432;28;20036;-74
2024/01/16 00:34:34;;;;;;;1.50;1.50;;;;;;;2.16;82.29;99737.44;5060159;28;20022;-74
2024/01/16 00:37:00;;;;;;;1.40;1.40;;;;;;;2.14;82.29;99731.31;5065182;28;20021;-75
2024/01/16 00:39:25;;;;;;;1.48;1.48;;;;;;;2.10;81.84;99732.22;5039737;28;20055;-74
2024/01/16 00:41:51;;;;;;;1.60;1.60;;;;;;;2.09;82.97;99737.50;5068288;28;20107;-77
2024/01/16 00:44:16;;;;;;;1.55;1.55;;;;;;;2.12;82.30;99740.97;5044442;28;20398;-76
2024/01/16 00:46:41;;;;;;;1.52;1.52;;;;;;;2.08;82.15;99739.22;5068641;28;20025;-77
2024/01/16 00:49:07;;;;;;;1.70;1.70;;;;;;;2.06;82.17;99740.13;5063261;28;20081;-78
2024/01/16 00:51:33;;;;;;;1.20;1.20;;;;;;;2.05;82.29;99728.75;5063111;28;20402;-73
2024/01/16 00:53:58;;;;;;;1.60;1.60;;;;;;;2.06;82.42;99730.47;5051676;28;20033;-77
2024/01/16 00:56:26;;;;;;;1.60;1.60;;;;;;;2.03;82.42;99735.75;5054866;28;20501;-74
2024/01/16 00:58:53;;;;;;;1.55;1.55;;;;;;;2.05;82.11;99739.25;5049531;28;20483;-78
2024/01/16 01:01:19;;;;;;;1.60;1.60;;;;;;;2.03;82.82;99737.47;5049946;28;20111;-76
2024/01/16 01:03:44;;;;;;;1.60;1.60;;;;;;;1.99;82.01;99736.66;5051357;28;20095;-76
2024/01/16 01:06:10;;;;;;;1.60;1.60;;;;;;;2.01;82.53;99734.88;5052039;28;20028;-78
2024/01/16 01:08:35;;;;;;;1.60;1.60;;;;;;;1.99;82.78;99744.53;5051694;28;20025;-76
2024/01/16 01:11:01;;;;;;;1.70;1.70;;;;;;;2.00;82.77;99737.50;5048898;28;20044;-76
2024/01/16 01:13:26;;;;;;;1.60;1.60;;;;;;;1.98;82.43;99745.38;5052313;28;20032;-74
2024/01/16 01:15:52;;;;;;;1.50;1.50;;;;;;;1.97;82.49;99741.03;5069336;28;20427;-78
2024/01/16 01:18:17;;;;;;;1.40;1.40;;;;;;;1.92;82.22;99742.78;5067518;28;20054;-76
2024/01/16 01:20:42;;;;;;;1.60;1.60;;;;;;;1.96;83.04;99739.25;5033169;28;20033;-77
2024/01/16 01:23:08;;;;;;;1.50;1.50;;;;;;;1.72;82.54;99707.88;5048959;28;20024;-78
2024/01/16 01:25:33;;;;;;;1.50;1.50;;;;;;;1.94;83.08;99743.66;5059223;28;20668;-79
2024/01/16 01:27:59;;;;;;;1.40;1.40;;;;;;;1.59;82.27;99690.44;5068888;28;20059;-78
2024/01/16 01:30:24;;;;;;;1.60;1.60;;;;;;;1.86;82.78;99742.78;5065179;28;20063;-76
2024/01/16 01:32:50;;;;;;;1.42;1.42;;;;;;;1.85;82.75;99741.03;5049765;28;20671;-74
2024/01/16 01:35:17;;;;;;;1.70;1.70;;;;;;;1.79;82.86;99745.44;5059651;28;20017;-77
2024/01/16 01:37:43;;;;;;;1.50;1.50;;;;;;;1.67;81.03;99748.06;5062376;28;21028;-76
2024/01/16 01:40:09;;;;;;;1.55;1.55;;;;;;;1.66;81.16;99749.81;5040257;28;20032;-75
2024/01/16 01:42:34;;;;;;;1.60;1.60;;;;;;;1.55;81.44;99745.47;5043025;28;20076;-77
2024/01/16 01:45:00;;;;;;;1.65;1.65;;;;;;;1.55;81.22;99761.19;5053251;28;20687;-77
2024/01/16 01:47:25;;;;;;;1.50;1.50;;;;;;;1.50;81.63;99760.34;5068588;28;20033;-78
2024/01/16 01:49:51;;;;;;;1.50;1.50;;;;;;;1.42;81.02;99756.84;5069224;28;20056;-78
2024/01/16 01:52:17;;;;;;;1.48;1.48;;;;;;;1.33;81.88;99755.09;5064481;28;20021;-78
2024/01/16 01:54:44;;;;;;;1.60;1.60;;;;;;;0.99;81.84;99721.88;5063616;28;20028;-78
2024/01/16 01:57:10;;;;;;;1.70;1.70;;;;;;;1.19;82.12;99765.56;5049211;28;20827;-77
2024/01/16 01:59:35;;;;;;;1.60;1.60;;;;;;;1.14;82.30;99767.31;5068702;28;20032;-76
2024/01/16 02:02:02;;;;;;;1.55;1.55;;;;;;;1.06;81.72;99768.16;5063410;28;20034;-64
2024/01/16 02:04:30;;;;;;;1.60;1.60;;;;;;;1.01;82.85;99773.41;5068557;28;20347;-64
2024/01/16 02:06:56;;;;;;;1.50;1.50;;;;;;;0.95;82.29;99764.66;5063673;28;20063;-64
2024/01/16 02:09:22;;;;;;;1.50;1.50;;;;;;;0.85;82.79;99763.78;5067126;28;20115;-64
2024/01/16 02:11:48;;;;;;;1.50;1.50;;;;;;;0.81;83.43;99748.94;5057681;28;20104;-63
2024/01/16 02:14:14;;;;;;;1.58;1.58;;;;;;;0.78;83.95;99758.50;5064613;28;20040;-63
2024/01/16 02:16:44;;;;;;;1.60;1.60;;;;;;;0.70;83.16;99755.00;5066111;28;20020;-64
2024/01/16 02:19:10;;;;;;;1.70;1.70;;;;;;;0.60;84.08;99754.13;5048232;28;20550;-64
2024/01/16 02:21:43;;;;;;;1.60;1.60;;;;;;;0.51;83.80;99758.47;5030035;28;20120;-64
2024/01/16 02:24:11;;;;;;;1.92;1.83;;;;;;;0.46;84.62;99760.19;5067184;28;20075;-64
2024/01/16 02:26:37;;;;;;;1.50;1.50;;;;;;;0.40;84.46;99750.56;5036398;28;20717;-64
2024/01/16 02:29:04;;;;;;;1.65;1.65;;;;;;;0.28;84.31;99741.81;5066473;28;20024;-65
2024/01/16 02:31:30;;;;;;;1.50;1.50;;;;;;;0.05;85.24;99719.91;5066290;28;20020;-64
2024/01/16 02:33:56;;;;;;;1.90;1.80;;;;;;;0.27;86.08;99750.50;5064278;28;20132;-64
2024/01/16 02:36:21;;;;;;;1.70;1.70;;;;;;;-0.02;86.05;99708.56;5065140;28;20044;-64
2024/01/16 02:38:47;;;;;;;1.70;1.70;;;;;;;0.23;86.62;99752.22;5066528;28;20028;-64
2024/01/16 02:41:16;;;;;;;1.70;1.70;;;;;;;0.21;86.67;99753.09;5065896;28;20250;-66
2024/01/16 02:43:42;;;;;;;1.70;1.70;;;;;;;0.19;86.68;99755.72;5048827;28;20060;-64
2024/01/16 02:46:11;;;;;;;1.70;1.70;;;;;;;0.14;86.34;99757.44;5047768;28;20036;-66
2024/01/16 02:48:37;;;;;;;1.52;1.52;;;;;;;-0.01;86.58;99737.31;5047440;28;20494;-64
2024/01/16 02:51:03;;;;;;;1.70;1.70;;;;;;;0.01;86.62;99745.16;5050394;28;20029;-65
2024/01/16 02:53:29;;;;;;;1.70;1.70;;;;;;;-0.20;87.29;99713.69;5064015;28;20033;-65
2024/01/16 02:55:55;;;;;;;1.63;1.63;;;;;;;0.03;86.96;99758.25;5055859;28;20025;-64
2024/01/16 02:58:21;;;;;;;1.85;1.80;;;;;;;-0.26;87.28;99725.00;5047834;28;20028;-65
2024/01/16 03:00:47;;;;;;;2.00;1.90;;;;;;;-0.05;86.99;99764.28;5049037;28;20112;-64
2024/01/16 03:03:14;;;;;;;1.83;1.80;;;;;;;-0.31;88.06;99747.59;5047621;28;20104;-65
2024/01/16 03:05:39;;;;;;;1.70;1.70;;;;;;;-0.17;87.73;99760.75;5047328;28;20025;-64
2024/01/16 03:08:05;;;;;;;1.80;1.80;;;;;;;-0.12;88.20;99767.78;5052383;28;20078;-65
2024/01/16 03:10:30;;;;;;;1.85;1.80;;;;;;;-0.12;88.03;99765.16;5051918;28;20102;-64
2024/01/16 03:12:57;;;;;;;2.00;1.90;;;;;;;-0.13;88.38;99771.22;5045608;28;20399;-64
2024/01/16 03:15:22;;;;;;;1.75;1.75;;;;;;;-0.13;88.37;99778.19;5053865;28;20071;-74
2024/01/16 03:17:48;;;;;;;1.77;1.77;;;;;;;-0.14;88.54;99782.56;5066550;28;20032;-74
2024/01/16 03:20:14;;;;;;;1.80;1.75;;;;;;;-0.12;88.68;99780.84;5065833;28;20111;-72
2024/01/16 03:22:40;;;;;;;1.90;1.80;;;;;;;-0.15;88.44;99787.78;5055267;28;20806;-71
2024/01/16 03:25:07;;;;;;;1.67;1.67;;;;;;;-0.20;88.61;99777.28;5069695;28;20024;-72
2024/01/16 03:27:32;;;;;;;2.08;1.98;;;;;;;-0.63;88.53;99699.53;5068354;28;20024;-72
2024/01/16 03:29:58;;;;;;;2.00;1.90;;;;;;;-0.22;88.88;99770.31;5062059;28;20037;-73
2024/01/16 03:32:23;;;;;;;2.00;1.90;;;;;;;-0.25;88.75;99768.53;5050054;28;20525;-69
2024/01/16 03:34:48;;;;;;;1.90;1.80;;;;;;;-0.28;89.16;99768.50;5058646;28;20103;-73
2024/01/16 03:37:14;;;;;;;1.63;1.63;;;;;;;-0.35;89.00;99766.75;5065559;28;20383;-73
2024/01/16 03:39:39;;;;;;;2.00;1.90;;;;;;;-0.39;88.78;99778.03;5051455;28;20032;-73
2024/01/16 03:42:05;;;;;;;1.70;1.70;;;;;;;-0.39;88.50;99774.53;5069395;28;20024;-72
2024/01/16 03:44:30;;;;;;;2.10;2.00;;;;;;;-0.42;88.51;99772.78;5063901;28;20046;-72
2024/01/16 03:46:55;;;;;;;1.90;1.80;;;;;;;-0.44;89.15;99776.22;5056989;28;20016;-73
2024/01/16 03:49:21;;;;;;;1.70;1.70;;;;;;;-0.47;89.05;99766.66;5045018;28;20416;-72
2024/01/16 03:51:47;;;;;;;1.95;1.85;;;;;;;-0.49;89.82;99773.59;5050698;28;20017;-72
2024/01/16 03:54:13;;;;;;;1.85;1.80;;;;;;;-0.55;89.35;99773.56;5050977;28;20021;-71
2024/01/16 03:56:39;;;;;;;1.67;1.67;;;;;;;-0.59;89.69;99782.22;5032518;28;20079;-72
2024/01/16 03:59:05;;;;;;;2.03;1.92;;;;;;;-0.59;90.36;99778.72;5028975;28;20756;-72
2024/01/16 04:01:32;;;;;;;2.00;1.90;;;;;;;-0.59;90.30;99769.16;5054603;28;20555;-72
2024/01/16 04:03:57;;;;;;;1.85;1.80;;;;;;;-0.60;90.04;99767.44;5037244;28;20037;-74
2024/01/16 04:06:22;;;;;;;1.90;1.80;;;;;;;-0.84;89.86;99740.25;5041012;28;20024;-70
2024/01/16 04:08:48;;;;;;;2.10;2.00;;;;;;;-0.68;90.21;99771.72;5048848;28;20075;-73
2024/01/16 04:11:14;;;;;;;2.08;1.98;;;;;;;-0.89;89.86;99745.41;5049434;28;20083;-70
2024/01/16 04:13:40;;;;;;;2.00;1.90;;;;;;;-0.77;90.64;99757.69;5042869;28;20040;-73
2024/01/16 04:16:06;;;;;;;2.00;1.90;;;;;;;-0.85;91.33;99755.03;5048143;28;20487;-72
2024/01/16 04:18:40;;;;;;;1.90;1.80;;;;;;;-0.82;90.81;99757.66;5043898;28;20040;-72
2024/01/16 04:21:06;;;;;;;2.10;2.00;;;;;;;-0.85;91.06;99757.66;5013926;28;20033;-72
2024/01/16 04:23:32;;;;;;;1.80;1.80;;;;;;;-0.87;91.18;99761.97;5028325;28;20067;-74
2024/01/16 04:25:58;;;;;;;1.90;1.80;;;;;;;-0.89;91.23;99757.63;5029080;28;20035;-71
2024/01/16 04:28:23;;;;;;;2.00;1.90;;;;;;;-0.89;91.73;99760.22;5041562;28;20395;-71
2024/01/16 04:30:49;;;;;;;2.00;1.90;;;;;;;-0.88;92.18;99757.63;5047785;28;20130;-75
2024/01/16 04:33:14;;;;;;;1.90;1.80;;;;;;;-0.89;92.21;99750.63;5037857;28;20041;-74
2024/01/16 04:35:40;;;;;;;1.92;1.83;;;;;;;-0.87;92.42;99751.53;5030140;28;20028;-75
2024/01/16 04:38:05;;;;;;;2.00;1.90;;;;;;;-0.87;91.80;99751.53;5030208;28;20091;-73
2024/01/16 04:40:31;;;;;;;2.00;1.90;;;;;;;-0.87;92.03;99761.97;5046165;28;20023;-72
2024/01/16 04:42:56;;;;;;;2.00;1.90;;;;;;;-0.89;91.80;99755.00;5045716;28;20036;-73
2024/01/16 04:45:22;;;;;;;1.90;1.80;;;;;;;-0.93;92.35;99748.88;5049615;28;20029;-73
2024/01/16 04:47:47;;;;;;;2.00;1.90;;;;;;;-1.17;91.26;99712.09;5049607;28;20158;-72
2024/01/16 04:50:12;;;;;;;2.00;1.90;;;;;;;-0.97;91.52;99739.25;5049768;28;20114;-75
2024/01/16 04:52:38;;;;;;;1.70;1.70;;;;;;;-1.01;91.83;99740.13;5033892;28;20104;-74
2024/01/16 04:55:04;;;;;;;2.03;1.92;;;;;;;-0.99;91.80;99741.00;5055411;28;20818;-74
2024/01/16 04:57:29;;;;;;;2.17;2.08;;;;;;;-0.98;91.77;99727.09;5066684;28;20048;-75
2024/01/16 04:59:55;;;;;;;2.00;1.90;;;;;;;-0.98;92.38;99719.25;5069805;28;20486;-73
2024/01/16 05:02:20;;;;;;;2.08;1.98;;;;;;;-1.03;92.04;99714.84;5069492;28;20096;-72
2024/01/16 05:04:49;;;;;;;2.10;2.00;;;;;;;-1.06;91.82;99722.66;5070004;28;20025;-73
2024/01/16 05:07:15;;;;;;;2.20;2.10;;;;;;;-1.36;92.06;99681.50;5062396;28;20083;-74
2024/01/16 05:09:40;;;;;;;1.95;1.85;;;;;;;-1.17;91.89;99717.31;5068973;28;20502;-76
2024/01/16 05:12:06;;;;;;;2.10;2.00;;;;;;;-1.18;92.18;99710.38;5050200;28;20025;-75
2024/01/16 05:14:31;;;;;;;2.05;1.95;;;;;;;-1.41;92.35;99671.03;5067758;28;20035;-76
2024/01/16 05:16:57;;;;;;;2.10;2.00;;;;;;;-1.48;92.42;99658.81;5062611;28;20017;-74
2024/01/16 05:19:22;;;;;;;1.90;1.80;;;;;;;-1.21;92.49;99693.81;5067885;28;20024;-73
2024/01/16 05:21:47;;;;;;;2.00;1.90;;;;;;;-1.28;92.76;99679.84;5063554;28;20582;-73
2024/01/16 05:24:13;;;;;;;2.30;2.20;;;;;;;-1.17;92.70;99696.47;5047892;28;20094;-75
2024/01/16 05:26:38;;;;;;;2.00;1.90;;;;;;;-1.15;92.92;99693.88;5066124;28;20528;-75
2024/01/16 05:29:04;;;;;;;2.03;1.92;;;;;;;-1.16;93.19;99690.41;5048272;28;20561;-76
2024/01/16 05:31:29;;;;;;;2.10;2.00;;;;;;;-1.10;93.50;99680.00;5068816;28;20028;-76
2024/01/16 05:33:54;;;;;;;2.20;2.10;;;;;;;-1.01;93.16;99674.88;5064197;28;20617;-77
2024/01/16 05:36:20;;;;;;;2.10;2.00;;;;;;;-1.03;93.15;99678.31;5051087;28;20028;-77
2024/01/16 05:38:46;;;;;;;2.10;2.00;;;;;;;-1.06;92.89;99679.19;5069087;28;20037;-77
2024/01/16 05:41:11;;;;;;;1.95;1.85;;;;;;;-1.01;92.69;99681.81;5068884;28;20029;-75
2024/01/16 05:43:36;;;;;;;2.00;1.90;;;;;;;-1.01;93.03;99687.91;5058427;28;20126;-76
2024/01/16 05:46:02;;;;;;;2.00;1.90;;;;;;;-1.02;92.97;99687.91;5066015;28;20112;-74
2024/01/16 05:48:27;;;;;;;1.90;1.80;;;;;;;-1.03;92.51;99689.63;5049260;28;20025;-76
2024/01/16 05:50:53;;;;;;;1.90;1.80;;;;;;;-1.04;92.11;99690.50;5049153;28;20086;-70
2024/01/16 05:53:18;;;;;;;2.10;2.00;;;;;;;-1.03;92.52;99683.53;5050120;28;20479;-76
2024/01/16 05:55:44;;;;;;;1.90;1.80;;;;;;;-1.06;92.57;99684.41;5048768;28;20483;-77
2024/01/16 05:58:09;;;;;;;2.20;2.10;;;;;;;-1.07;92.55;99687.84;5052642;28;20032;-77
2024/01/16 06:00:35;;;;;;;2.00;1.90;;;;;;;-1.06;92.17;99683.50;5050281;28;20029;-74
2024/01/16 06:03:00;;;;;;;2.05;1.95;;;;;;;-1.11;92.90;99670.44;5067671;28;20138;-75
2024/01/16 06:05:25;;;;;;;1.98;1.88;;;;;;;-1.03;92.55;99678.31;5063354;28;20479;-76
2024/01/16 06:07:51;;;;;;;2.10;2.00;;;;;;;-1.05;92.78;99675.69;5050168;28;20075;-74
2024/01/16 06:10:17;;;;;;;2.10;2.00;;;;;;;-1.01;92.82;99685.31;5050463;28;21102;-73
2024/01/16 06:12:42;;;;;;;1.98;1.88;;;;;;;-1.01;92.73;99677.47;5063564;28;20725;-77
2024/01/16 06:15:09;;;;;;;1.95;1.85;;;;;;;-0.98;92.73;99687.06;5046582;28;20033;-75
2024/01/16 06:17:34;;;;;;;1.90;1.80;;;;;;;-0.94;92.71;99688.84;5060759;28;20432;-77
2024/01/16 06:20:00;;;;;;;2.05;1.95;;;;;;;-0.84;92.38;99691.50;5048925;28;20025;-77
2024/01/16 06:22:25;;;;;;;2.05;1.95;;;;;;;-1.02;91.57;99665.28;5047524;28;20135;-78
2024/01/16 06:24:50;;;;;;;2.00;1.90;;;;;;;-0.75;91.63;99696.81;5048233;28;20029;-73
2024/01/16 06:27:18;;;;;;;2.30;2.20;;;;;;;-0.79;91.22;99687.19;5047807;28;20033;-76
2024/01/16 06:29:51;;;;;;;1.90;1.80;;;;;;;-0.97;91.39;99652.28;5051997;28;20064;-75
2024/01/16 06:32:16;;;;;;;2.00;1.90;;;;;;;-0.70;90.77;99691.63;5066806;28;20517;-76
2024/01/16 06:34:41;;;;;;;1.90;1.80;;;;;;;-0.76;90.16;99689.84;5049713;28;20031;-76
2024/01/16 06:37:08;;;;;;;1.90;1.80;;;;;;;-0.77;90.66;99695.91;5063439;28;20029;-73
2024/01/16 06:39:34;;;;;;;1.73;1.73;;;;;;;-0.71;90.96;99692.50;5047374;28;20391;-76
2024/01/16 06:41:59;;;;;;;2.00;1.90;;;;;;;-1.16;90.58;99624.28;5046914;28;20033;-74
2024/01/16 06:44:25;;;;;;;2.10;2.00;;;;;;;-0.72;91.01;99686.38;5053255;28;20406;-75
2024/01/16 06:46:50;;;;;;;1.70;1.70;;;;;;;-0.72;91.18;99686.38;5046411;28;20175;-75
2024/01/16 06:49:15;;;;;;;1.95;1.85;;;;;;;-0.75;90.93;99673.31;5039861;28;20144;-76
2024/01/16 06:51:41;;;;;;;2.00;1.90;;;;;;;-0.76;91.05;99674.19;5009924;28;20029;-77
2024/01/16 06:54:06;;;;;;;1.80;1.80;;;;;;;-0.71;91.51;99675.06;5027873;28;20769;-77
2024/01/16 06:56:32;;;;;;;2.10;2.00;;;;;;;-0.72;91.70;99670.72;5040309;28;20021;-76
2024/01/16 06:58:57;;;;;;;2.10;2.00;;;;;;;-0.72;91.12;99675.94;5027462;28;20033;-76
2024/01/16 07:01:23;;;;;;;2.00;1.90;;;;;;;-0.92;92.02;99638.38;5029524;28;20056;-77
2024/01/16 07:03:48;;;;;;;2.00;1.90;;;;;;;-0.72;91.31;99675.94;5024435;28;20022;-76
2024/01/16 07:06:13;;;;;;;1.92;1.83;;;;;;;-0.70;91.77;99679.44;5025363;28;20037;-75
2024/01/16 07:08:39;;;;;;;1.95;1.85;;;;;;;-0.80;92.16;99650.63;5026343;28;20024;-76
2024/01/16 07:11:07;;;;;;;2.00;1.90;;;;;;;-0.89;91.55;99625.34;5043116;28;20036;-74
2024/01/16 07:13:34;;;;;;;1.90;1.80;;;;;;;-0.86;91.79;99625.38;5044878;28;20013;-75
2024/01/16 07:15:59;;;;;;;2.10;2.00;;;;;;;-0.61;91.68;99670.78;5039644;28;20037;-75
2024/01/16 07:18:26;;;;;;;1.90;1.80;;;;;;;-0.64;91.77;99679.47;5026449;28;20434;-76
2024/01/16 07:20:52;;;;;;;1.90;1.80;;;;;;;-0.87;92.07;99634.06;5045445;28;20161;-75
2024/01/16 07:23:17;;;;;;;2.00;1.90;;;;;;;-0.60;91.52;99669.91;5044591;28;20032;-74
2024/01/16 07:25:43;;;;;;;1.90;1.80;;;;;;;-0.59;91.87;99672.53;5046647;28;20460;-77
2024/01/16 07:28:08;;;;;;;2.10;2.00;;;;;;;-0.82;91.88;99632.34;5038724;28;20045;-72
2024/01/16 07:30:34;;;;;;;1.90;1.80;;;;;;;-0.59;91.56;99676.88;5027310;28;20041;-76
2024/01/16 07:32:59;;;;;;;2.00;1.90;;;;;;;-0.58;91.68;99679.53;5061238;28;20035;-73
2024/01/16 07:35:24;;;;;;;1.80;1.80;;;;;;;-0.55;91.42;99674.31;5028134;28;20021;-74
2024/01/16 07:37:50;;;;;;;2.10;2.00;;;;;;;-0.78;91.60;99639.34;5026425;28;20652;-76
2024/01/16 07:40:16;;;;;;;2.00;1.90;;;;;;;-0.54;91.32;99670.84;5011226;28;20056;-75
2024/01/16 07:42:42;;;;;;;1.70;1.70;;;;;;;-0.51;91.23;99676.06;5008579;28;20758;-73
2024/01/16 07:45:08;;;;;;;1.90;1.80;;;;;;;-0.48;91.17;99680.44;5044982;28;20528;-73
2024/01/16 07:47:33;;;;;;;1.90;1.80;;;;;;;-0.54;91.69;99663.00;5046413;28;20095;-73
2024/01/16 07:50:01;;;;;;;1.90;1.80;;;;;;;-0.32;91.21;99677.94;5063007;28;20071;-74
2024/01/16 07:52:29;;;;;;;1.70;1.70;;;;;;;-0.26;91.07;99680.56;5064389;28;20024;-74
2024/01/16 07:54:55;;;;;;;1.65;1.65;;;;;;;-0.35;91.49;99646.56;5062809;28;20063;-65
2024/01/16 07:57:20;;;;;;;1.90;1.80;;;;;;;-0.11;91.49;99682.38;5048349;28;20032;-65
2024/01/16 07:59:46;;;;;;;2.00;1.90;;;;;;;-0.07;91.37;99671.94;5047490;28;20107;-66
2024/01/16 08:02:12;;;;;;;1.77;1.77;;;;;;;0.03;91.04;99672.88;5065410;28;20029;-65
2024/01/16 08:04:37;;;;;;;1.67;1.67;;;;;;;-0.11;90.75;99651.88;5058933;28;20391;-65
2024/01/16 08:07:03;;;;;;;1.90;1.80;;;;;;;0.22;90.91;99679.00;5045507;28;20021;-65
2024/01/16 08:09:28;;;;;;;1.67;1.67;;;;;;;0.21;89.35;99692.97;5059616;28;21702;-65
2024/01/16 08:11:54;;;;;;;1.83;1.73;;;;;;;0.21;88.27;99690.34;5063971;28;20056;-65
2024/01/16 08:14:19;;;;;;;1.60;1.60;;;;;;;0.18;88.19;99690.34;5067955;28;20035;-65
2024/01/16 08:16:44;;;;;;;1.90;1.80;;;;;;;0.23;88.03;99683.38;5056809;28;20514;-65
2024/01/16 08:19:10;;;;;;;1.70;1.70;;;;;;;0.14;87.63;99689.44;5048773;28;20553;-66
2024/01/16 08:21:36;;;;;;;1.70;1.70;;;;;;;0.20;88.03;99691.22;5032325;28;20131;-66
2024/01/16 08:24:02;;;;;;;1.80;1.80;;;;;;;0.22;87.12;99697.31;5060418;28;20170;-65
2024/01/16 08:26:28;;;;;;;1.90;1.80;;;;;;;0.22;87.61;99705.16;5047157;28;20025;-65
2024/01/16 08:28:53;;;;;;;1.73;1.73;;;;;;;0.29;87.88;99694.72;5031869;28;20028;-65
2024/01/16 08:31:19;;;;;;;1.70;1.70;;;;;;;0.30;87.74;99690.38;5055571;28;20397;-66
2024/01/16 08:33:45;;;;;;;1.80;1.80;;;;;;;0.10;87.08;99655.44;5070057;28;20062;-65
2024/01/16 08:36:11;;;;;;;1.73;1.73;;;;;;;-0.15;87.53;99623.97;5051783;28;20035;-65
2024/01/16 08:38:37;;;;;;;1.85;1.77;;;;;;;0.40;87.59;99703.47;5069614;28;20032;-66
2024/01/16 08:41:06;;;;;;;1.70;1.70;;;;;;;0.36;87.42;99659.88;5061399;28;20431;-65
2024/01/16 08:43:32;;;;;;;1.90;1.80;;;;;;;0.64;86.16;99702.66;5058772;28;20053;-65
2024/01/16 08:45:57;;;;;;;1.90;1.80;;;;;;;0.67;85.81;99700.94;5064014;28;20035;-65
2024/01/16 08:48:23;;;;;;;1.58;1.58;;;;;;;0.85;86.42;99698.34;5066018;28;20062;-65
2024/01/16 08:50:48;;;;;;;1.70;1.70;;;;;;;0.80;85.02;99662.53;5069480;28;20493;-65
2024/01/16 08:53:13;;;;;;;1.70;1.70;;;;;;;1.11;85.16;99696.59;5069308;28;20157;-65
2024/01/16 08:55:39;;;;;;;1.60;1.60;;;;;;;1.19;84.55;99699.19;5064033;28;20024;-65
2024/01/16 08:58:05;;;;;;;1.67;1.67;;;;;;;1.33;84.07;99702.69;5063329;28;20045;-65
2024/01/16 09:00:30;;;;;;;1.70;1.70;;;;;;;1.73;83.71;99700.88;5047107;28;20379;-65
2024/01/16 09:02:57;;;;;;;1.50;1.50;;;;;;;1.85;81.51;99704.34;5049325;28;20033;-66
2024/01/16 09:05:25;;;;;;;1.70;1.70;;;;;;;1.61;80.72;99628.41;5060185;28;20086;-66
2024/01/16 09:07:50;;;;;;;1.60;1.60;;;;;;;2.16;79.33;99697.22;5068007;28;20024;-66
2024/01/16 09:10:17;;;;;;;1.60;1.60;;;;;;;2.23;78.89;99691.94;5061917;28;20040;-66
2024/01/16 09:12:42;;;;;;;1.50;1.50;;;;;;;1.91;77.52;99643.13;5049908;28;20412;-65
2024/01/16 09:15:08;;;;;;;1.50;1.50;;;;;;;2.15;78.11;99683.25;5030900;28;20620;-65
2024/01/16 09:17:33;;;;;;;1.58;1.58;;;;;;;2.18;77.87;99688.47;5065757;28;20025;-65
2024/01/16 09:19:59;;;;;;;1.60;1.60;;;;;;;2.11;78.20;99689.38;5069461;28;20085;-66
2024/01/16 09:22:24;;;;;;;1.52;1.52;;;;;;;2.06;77.90;99645.69;5068626;28;20761;-66
2024/01/16 09:24:50;;;;;;;1.50;1.50;;;;;;;2.32;77.95;99686.66;5065043;28;20045;-66
2024/01/16 09:27:16;;;;;;;1.40;1.40;;;;;;;2.41;77.72;99683.97;5067652;28;20074;-66
2024/01/16 09:29:42;;;;;;;1.50;1.50;;;;;;;2.52;77.88;99674.28;5049899;28;20016;-66
2024/01/16 09:32:07;;;;;;;1.45;1.45;;;;;;;2.59;78.00;99686.50;5052992;28;20510;-66
2024/01/16 09:34:33;;;;;;;1.48;1.48;;;;;;;2.50;76.59;99681.28;5048135;28;20104;-66
2024/01/16 09:37:00;;;;;;;1.55;1.55;;;;;;;2.50;76.65;99676.03;5049312;28;20028;-65
2024/01/16 09:39:26;;;;;;;1.40;1.40;;;;;;;2.63;76.32;99687.34;5047915;28;20036;-66
2024/01/16 09:41:51;;;;;;;1.40;1.40;;;;;;;2.70;75.33;99692.56;5048525;28;20068;-65
2024/01/16 09:44:17;;;;;;;1.35;1.35;;;;;;;2.87;74.86;99681.09;5058298;28;20409;-65
2024/01/16 09:46:46;;;;;;;1.40;1.40;;;;;;;3.06;74.11;99678.28;5058010;28;20543;-66
2024/01/16 09:49:14;;;;;;;1.40;1.40;;;;;;;3.00;72.09;99656.47;5025064;28;20029;-66
2024/01/16 09:51:39;;;;;;;1.40;1.40;;;;;;;3.35;71.90;99649.13;5046931;28;20025;-66
2024/01/16 09:54:08;;;;;;;1.38;1.38;;;;;;;4.18;72.33;99666.59;5041854;28;20105;-67
2024/01/16 09:56:38;;;;;;;1.20;1.20;;;;;;;4.76;68.10;99678.06;5049265;28;20471;-67
2024/01/16 09:59:06;;;;;;;1.25;1.25;;;;;;;5.47;65.54;99669.00;5036224;28;20064;-67
2024/01/16 10:01:32;;;;;;;1.17;1.17;;;;;;;6.76;61.38;99634.63;5027243;28;20033;-68
2024/01/16 10:03:58;;;;;;;1.30;1.30;;;;;;;7.54;54.22;99632.66;5020567;28;20025;-67
2024/01/16 10:06:24;;;;;;;1.10;1.10;;;;;;;8.47;51.30;99668.88;5050649;28;20024;-68
2024/01/16 10:08:49;;;;;;;1.10;1.10;;;;;;;8.72;49.72;99669.00;5068546;28;20050;-66
2024/01/16 10:11:15;;;;;;;1.00;1.00;;;;;;;9.09;49.01;99666.94;5059425;28;20033;-68
2024/01/16 10:13:41;;;;;;;0.90;0.90;;;;;;;9.52;46.53;99671.69;5043335;28;20024;-67
2024/01/16 10:16:07;;;;;;;0.80;0.80;;;;;;;10.47;45.34;99656.72;5048218;28;20024;-71
2024/01/16 10:18:33;;;;;;;0.80;0.80;;;;;;;10.83;43.82;99622.50;5047741;28;20029;-73
2024/01/16 10:20:59;;;;;;;0.80;0.80;;;;;;;11.47;41.11;99653.53;5047168;28;20020;-72
2024/01/16 10:23:29;;;;;;;0.80;0.80;;;;;;;11.28;41.33;99646.38;5032613;28;20712;-73
2024/01/16 10:26:18;;;;;;;0.70;0.70;;;;;;;11.87;41.00;99636.75;5039756;28;20025;-75
2024/01/16 10:28:44;;;;;;;0.80;0.80;;;;;;;12.43;39.97;99632.41;5046868;28;20040;-76
2024/01/16 10:31:16;;;;;;;0.90;0.90;;;;;;;12.67;38.40;99636.59;5043384;28;20104;-74
2024/01/16 10:33:41;;;;;;;0.80;0.80;;;;;;;12.89;37.89;99629.31;5030353;28;20021;-73
2024/01/16 10:36:10;;;;;;;0.70;0.70;;;;;;;13.32;37.25;99597.84;5028167;28;20028;-75
2024/01/16 10:38:40;;;;;;;0.80;0.80;;;;;;;14.18;36.82;99623.59;5028306;28;20028;-73
2024/01/16 10:41:10;;;;;;;0.85;0.85;;;;;;;14.91;36.00;99618.63;5032391;28;20111;-73
2024/01/16 10:43:36;;;;;;;0.70;0.70;;;;;;;14.95;34.65;99632.72;5053893;28;20123;-73
2024/01/16 10:46:17;;;;;;;0.70;0.70;;;;;;;14.87;35.02;99613.53;5066323;28;20060;-72
2024/01/16 10:49:02;;;;;;;0.80;0.80;;;;;;;14.68;34.25;99624.41;5065586;28;20038;-73
2024/01/16 10:51:29;;;;;;;0.70;0.70;;;;;;;14.90;34.77;99624.97;5066234;28;20021;-73
2024/01/16 10:53:59;;;;;;;0.70;0.70;;;;;;;14.93;34.70;99614.06;5052906;28;20032;-73
2024/01/16 10:56:27;;;;;;;0.70;0.70;;;;;;;14.68;34.26;99607.50;5046021;28;20025;-73
2024/01/16 10:59:24;;;;;;;0.60;0.60;;;;;;;14.75;34.29;99609.75;5046478;28;20073;-71
2024/01/16 11:01:51;;;;;;;0.70;0.70;;;;;;;14.45;33.99;99606.06;5043218;28;20036;-74
2024/01/16 11:04:19;;;;;;;0.60;0.60;;;;;;;14.56;34.60;99613.53;5048538;28;20052;-75
2024/01/16 11:06:46;;;;;;;0.60;0.60;;;;;;;14.52;34.69;99612.81;5045968;28;20033;-75
2024/01/16 11:09:16;;;;;;;0.70;0.70;;;;;;;14.18;35.32;99607.56;5046976;28;20483;-75
2024/01/16 11:11:46;;;;;;;0.60;0.60;;;;;;;14.12;34.94;99605.19;5051290;28;20543;-75
2024/01/16 11:14:15;;;;;;;0.70;0.70;;;;;;;13.70;35.36;99599.44;5062274;28;20516;-74
2024/01/16 11:16:42;;;;;;;0.60;0.60;;;;;;;13.33;36.41;99586.25;5066466;28;20032;-74
2024/01/16 11:19:11;;;;;;;0.60;0.60;;;;;;;13.42;36.94;99591.09;5050096;28;20572;-75
2024/01/16 11:21:37;;;;;;;0.60;0.60;;;;;;;13.20;36.50;99586.84;5067959;28;20162;-74
2024/01/16 11:24:03;;;;;;;0.68;0.68;;;;;;;13.35;36.04;99587.00;5050531;28;20037;-74
2024/01/16 11:26:33;;;;;;;0.60;0.60;;;;;;;13.44;36.84;99570.53;5049264;28;20024;-75
2024/01/16 11:29:21;;;;;;;0.60;0.60;;;;;;;13.91;37.11;99571.56;5054378;28;20040;-76
2024/01/16 11:31:46;;;;;;;0.60;0.60;;;;;;;14.04;36.59;99567.28;5054807;28;20739;-76